This is the latest recevied weather packets stored in our database for station/object R1ZAAG-14. If no packets are shown the sender has not sent any weather packets the latest 10 day(s).
| Time | Temp. | Humidity | Pressure | Rain* | Wind** | Luminosity | Snow |
|---|---|---|---|---|---|---|---|
| 1778107276 | 0.56° C | 68% | 1011.6 hPa | - | - | - | - |
| 1778106392 | 0.56° C | 68% | 1011.4 hPa | - | - | - | - |
| 1778105491 | 0° C | 70% | 1011.5 hPa | - | - | - | - |
| 1778104590 | 0° C | 70% | 1011.4 hPa | - | - | - | - |
| 1778103690 | 0° C | 70% | 1011.2 hPa | - | - | - | - |
| 1778102789 | 0° C | 69% | 1011.3 hPa | - | - | - | - |
| 1778101888 | 0° C | 67% | 1011.1 hPa | - | - | - | - |
| 1778100987 | 0.56° C | 68% | 1011 hPa | - | - | - | - |
| 1778100087 | 0° C | 68% | 1010.8 hPa | - | - | - | - |
| 1778099187 | 0.56° C | 66% | 1010.6 hPa | - | - | - | - |
| 1778098287 | 1.11° C | 62% | 1010.6 hPa | - | - | - | - |
| 1778097386 | 1.67° C | 60% | 1010.5 hPa | - | - | - | - |
| 1778096485 | 1.67° C | 60% | 1010.4 hPa | - | - | - | - |
| 1778095585 | 2.22° C | 60% | 1010.3 hPa | - | - | - | - |
| 1778094684 | 2.78° C | 64% | 1010.1 hPa | - | - | - | - |
| 1778093784 | 4.44° C | 58% | 1010 hPa | - | - | - | - |
| 1778092883 | 5.56° C | 54% | 1009.8 hPa | - | - | - | - |
| 1778091983 | 6.11° C | 53% | 1009.8 hPa | - | - | - | - |
| 1778091082 | 6.11° C | 52% | 1009.7 hPa | - | - | - | - |
| 1778090181 | 8.33° C | 49% | 1009.5 hPa | - | - | - | - |
| 1778089281 | 8.33° C | 49% | 1009.5 hPa | - | - | - | - |
| 1778088380 | 6.67° C | 50% | 1009.4 hPa | - | - | - | - |
| 1778087479 | 9.44° C | 46% | 1009.3 hPa | - | - | - | - |
| 1778086575 | 11.11° C | 45% | 1009.2 hPa | - | - | - | - |
| 1778085674 | 10.56° C | 45% | 1009 hPa | - | - | - | - |
* Rain since midnight (hover to see other rain measurements)
** Current wind speed in m/s (hover to see current wind gust speed)